createdAt,value
2018-02-21T00:01:15.971Z,93202.27
2018-02-21T00:03:43.544Z,93198.53
2018-02-21T00:06:11.222Z,93207.22
2018-02-21T00:08:38.787Z,93218.36
2018-02-21T00:11:06.326Z,93197.80
2018-02-21T00:13:34.422Z,93197.44
2018-02-21T00:16:01.974Z,93199.47
2018-02-21T00:18:29.514Z,93195.79
2018-02-21T00:20:57.096Z,93201.97
2018-02-21T00:23:24.644Z,93193.28
2018-02-21T00:25:52.195Z,93197.00
2018-02-21T00:28:20.065Z,93199.86
2018-02-21T00:30:47.600Z,93192.84
2018-02-21T00:33:15.139Z,93201.03
2018-02-21T00:35:42.714Z,93213.38
2018-02-21T00:38:10.259Z,93208.44
2018-02-21T00:40:37.807Z,93202.69
2018-02-21T00:43:05.684Z,93201.45
2018-02-21T00:45:33.240Z,93207.61
2018-02-21T00:48:00.786Z,93198.53
2018-02-21T00:50:28.382Z,93198.53
2018-02-21T00:52:55.936Z,93199.73
2018-02-21T00:55:23.480Z,93192.70
2018-02-21T00:57:51.071Z,93191.46
2018-02-21T01:00:18.654Z,93191.52
2018-02-21T01:02:46.212Z,93192.34
2018-02-21T01:05:13.959Z,93194.84
2018-02-21T01:07:41.506Z,93195.20
2018-02-21T01:10:09.048Z,93199.73
2018-02-21T01:12:36.638Z,93197.66
2018-02-21T01:15:04.194Z,93193.97
2018-02-21T01:17:31.747Z,93201.83
2018-02-21T01:19:59.338Z,93203.95
2018-02-21T01:22:26.892Z,93202.69
2018-02-21T01:24:54.444Z,93207.28
2018-02-21T01:27:22.178Z,93204.77
2018-02-21T01:29:49.723Z,93211.44
2018-02-21T01:32:17.268Z,93202.44
2018-02-21T01:34:44.954Z,93210.38
2018-02-21T01:37:12.502Z,93210.38
2018-02-21T01:39:40.057Z,93205.88
2018-02-21T01:42:07.647Z,93203.43
2018-02-21T01:44:35.193Z,93198.05
2018-02-21T01:47:02.763Z,93203.43
2018-02-21T01:49:30.505Z,93205.88
2018-02-21T01:51:58.054Z,93194.75
2018-02-21T01:54:25.608Z,93189.44
2018-02-21T01:56:53.197Z,93185.29
2018-02-21T01:59:20.730Z,93196.40
2018-02-21T02:01:48.288Z,93191.42
2018-02-21T02:04:15.915Z,93194.75
2018-02-21T02:06:43.459Z,93189.38
2018-02-21T02:09:11.006Z,93195.16
2018-02-21T02:11:38.881Z,93188.98
2018-02-21T02:14:06.422Z,93181.99
2018-02-21T02:16:33.973Z,93184.88
2018-02-21T02:19:01.520Z,93192.38
2018-02-21T02:21:29.076Z,93184.16
2018-02-21T02:23:57.703Z,93182.18
2018-02-21T02:26:25.241Z,93183.92
2018-02-21T02:28:52.954Z,93186.41
2018-02-21T02:31:20.692Z,93191.40
2018-02-21T02:33:48.233Z,93198.02
2018-02-21T02:36:15.779Z,93194.81
2018-02-21T02:38:55.375Z,93181.22
2018-02-21T02:41:22.932Z,93186.64
2018-02-21T02:43:50.478Z,93180.08
2018-02-21T02:46:18.068Z,93168.16
2018-02-21T02:48:45.669Z,93174.36
2018-02-21T02:51:13.243Z,93169.44
2018-02-21T02:53:40.873Z,93168.18
2018-02-21T02:56:08.434Z,93158.66
2018-02-21T02:58:35.986Z,93166.48
2018-02-21T03:01:03.563Z,93162.78
2018-02-21T03:03:31.110Z,93156.60
2018-02-21T03:05:58.643Z,93161.56
2018-02-21T03:08:26.515Z,93155.39
2018-02-21T03:10:54.054Z,93152.98
2018-02-21T03:13:21.594Z,93158.73
2018-02-21T03:15:49.328Z,93153.77
2018-02-21T03:18:16.880Z,93150.93
2018-02-21T03:20:44.433Z,93151.77
2018-02-21T03:23:12.013Z,93153.05
2018-02-21T03:25:39.551Z,93147.70
2018-02-21T03:28:07.081Z,93150.61
2018-02-21T03:30:34.670Z,93142.79
2018-02-21T03:33:02.251Z,93148.55
2018-02-21T03:35:29.795Z,93154.75
2018-02-21T03:37:57.470Z,93150.25
2018-02-21T03:40:25.014Z,93151.87
2018-02-21T03:42:52.563Z,93148.13
2018-02-21T03:45:20.187Z,93133.34
2018-02-21T03:47:47.718Z,93142.00
2018-02-21T03:50:15.268Z,93128.84
2018-02-21T03:52:42.864Z,93116.89
2018-02-21T03:55:10.411Z,93116.50
2018-02-21T03:57:37.960Z,93126.41
2018-02-21T04:00:05.665Z,93121.88
2018-02-21T04:02:33.217Z,93119.82
2018-02-21T04:05:00.761Z,93112.38
2018-02-21T04:07:28.813Z,93119.80
2018-02-21T04:09:56.361Z,93118.97
2018-02-21T04:12:23.925Z,93111.97
2018-02-21T04:14:51.691Z,93117.72
2018-02-21T04:17:19.283Z,93114.81
2018-02-21T04:19:46.823Z,93108.27
2018-02-21T04:22:14.527Z,93109.09
2018-02-21T04:24:42.079Z,93101.29
2018-02-21T04:27:09.627Z,93100.88
2018-02-21T04:29:37.195Z,93106.59
2018-02-21T04:32:04.759Z,93097.59
2018-02-21T04:34:32.310Z,93101.63
2018-02-21T04:37:00.174Z,93095.42
2018-02-21T04:39:27.713Z,93101.58
2018-02-21T04:41:55.251Z,93103.59
2018-02-21T04:44:22.979Z,93090.36
2018-02-21T04:46:50.524Z,93088.71
2018-02-21T04:49:18.065Z,93092.83
2018-02-21T04:51:45.654Z,93080.03
2018-02-21T04:54:13.240Z,93086.66
2018-02-21T04:56:49.574Z,93078.08
2018-02-21T04:59:21.829Z,93079.31
2018-02-21T05:01:49.418Z,93080.09
2018-02-21T05:04:17.295Z,93074.34
2018-02-21T05:06:44.843Z,93069.79
2018-02-21T05:09:12.391Z,93072.31
2018-02-21T05:11:40.074Z,93093.70
2018-02-21T05:14:07.620Z,93097.03
2018-02-21T05:16:35.199Z,93105.98
2018-02-21T05:19:02.753Z,93114.17
2018-02-21T05:21:30.299Z,93130.20
2018-02-21T05:23:57.886Z,93132.30
2018-02-21T05:26:25.450Z,93132.75
2018-02-21T05:28:53.010Z,93127.33
2018-02-21T05:31:20.593Z,93136.44
2018-02-21T05:33:48.164Z,93136.44
2018-02-21T05:36:15.750Z,93126.89
2018-02-21T05:38:43.626Z,93128.53
2018-02-21T05:41:11.182Z,93122.25
2018-02-21T05:43:38.724Z,93116.45
2018-02-21T05:46:06.302Z,93121.34
2018-02-21T05:48:33.854Z,93123.38
2018-02-21T05:51:01.384Z,93116.34
2018-02-21T05:53:29.112Z,93117.17
2018-02-21T05:55:56.668Z,93127.01
2018-02-21T05:58:24.816Z,93119.95
2018-02-21T06:00:52.490Z,93112.94
2018-02-21T06:03:20.051Z,93110.87
2018-02-21T06:05:47.600Z,93116.20
2018-02-21T06:08:15.206Z,93111.62
2018-02-21T06:10:42.741Z,93105.79
2018-02-21T06:13:10.285Z,93113.56
2018-02-21T06:15:37.862Z,93113.09
2018-02-21T06:18:05.395Z,93125.81
2018-02-21T06:20:32.947Z,93125.37
2018-02-21T06:23:00.696Z,93122.03
2018-02-21T06:25:28.255Z,93129.37
2018-02-21T06:27:55.814Z,93118.14
2018-02-21T06:30:23.430Z,93121.69
2018-02-21T06:32:50.967Z,93117.05
2018-02-21T06:35:18.524Z,93113.97
2018-02-21T06:37:46.102Z,93111.70
2018-02-21T06:40:13.643Z,93110.23
2018-02-21T06:42:41.194Z,93114.56
2018-02-21T06:45:08.941Z,93116.06
2018-02-21T06:47:36.493Z,93122.52
2018-02-21T06:50:04.080Z,93112.06
2018-02-21T06:52:31.658Z,93104.44
2018-02-21T06:54:59.213Z,93117.37
2018-02-21T06:57:26.745Z,93114.59
2018-02-21T06:59:54.335Z,93120.49
2018-02-21T07:02:33.531Z,93129.88
2018-02-21T07:05:01.130Z,93118.11
2018-02-21T07:07:28.723Z,93125.20
2018-02-21T07:09:56.280Z,93127.85
2018-02-21T07:12:23.877Z,93124.95
2018-02-21T07:14:51.467Z,93126.14
2018-02-21T07:17:19.027Z,93130.00
2018-02-21T07:19:46.628Z,93128.30
2018-02-21T07:22:14.190Z,93136.28
2018-02-21T07:24:41.779Z,93123.89
2018-02-21T07:27:09.374Z,93133.89
2018-02-21T07:29:36.915Z,93129.18
2018-02-21T07:32:04.463Z,93130.47
2018-02-21T07:34:32.057Z,93139.42
2018-02-21T07:36:59.621Z,93140.75
2018-02-21T07:39:27.166Z,93138.92
2018-02-21T07:41:54.920Z,93139.91
2018-02-21T07:44:22.500Z,93142.28
2018-02-21T07:46:50.034Z,93163.02
2018-02-21T07:49:17.617Z,93156.77
2018-02-21T07:51:45.162Z,93145.27
2018-02-21T07:54:12.738Z,93139.35
2018-02-21T07:56:40.340Z,93132.73
2018-02-21T07:59:07.883Z,93145.64
2018-02-21T08:01:35.427Z,93151.48
2018-02-21T08:04:02.995Z,93158.42
2018-02-21T08:06:30.552Z,93160.30
2018-02-21T08:08:58.114Z,93167.11
2018-02-21T08:11:25.983Z,93158.88
2018-02-21T08:13:53.538Z,93161.81
2018-02-21T08:16:21.083Z,93165.80
2018-02-21T08:18:48.620Z,93171.45
2018-02-21T08:21:16.192Z,93161.52
2018-02-21T08:23:43.758Z,93167.52
2018-02-21T08:26:11.307Z,93164.52
2018-02-21T08:28:38.846Z,93161.68
2018-02-21T08:31:06.428Z,93173.22
2018-02-21T08:33:34.009Z,93166.22
2018-02-21T08:36:01.559Z,93154.63
2018-02-21T08:38:29.152Z,93167.20
2018-02-21T08:40:56.712Z,93161.26
2018-02-21T08:43:24.834Z,93160.92
2018-02-21T08:45:52.590Z,93168.84
2018-02-21T08:48:20.174Z,93180.97
2018-02-21T08:50:47.733Z,93153.80
2018-02-21T08:53:15.347Z,93170.72
2018-02-21T08:55:42.900Z,93163.72
2018-02-21T08:58:10.474Z,93180.89
2018-02-21T09:00:38.045Z,93166.59
2018-02-21T09:03:05.599Z,93175.78
2018-02-21T09:05:33.176Z,93172.47
2018-02-21T09:08:00.751Z,93177.55
2018-02-21T09:10:28.299Z,93185.52
2018-02-21T09:12:55.836Z,93208.13
2018-02-21T09:15:23.519Z,93185.68
2018-02-21T09:17:51.057Z,93188.52
2018-02-21T09:20:18.607Z,93200.08
2018-02-21T09:22:46.345Z,93207.67
2018-02-21T09:25:13.904Z,93202.63
2018-02-21T09:27:41.461Z,93211.65
2018-02-21T09:30:09.152Z,93214.18
2018-02-21T09:32:36.713Z,93216.03
2018-02-21T09:35:04.271Z,93215.20
2018-02-21T09:37:31.997Z,93204.31
2018-02-21T09:39:59.545Z,93208.56
2018-02-21T09:42:27.094Z,93216.20
2018-02-21T09:44:54.834Z,93228.02
2018-02-21T09:47:22.378Z,93212.68
2018-02-21T09:49:49.930Z,93207.75
2018-02-21T09:52:17.508Z,93201.89
2018-02-21T09:54:45.050Z,93202.11
2018-02-21T09:57:12.603Z,93208.17
2018-02-21T09:59:40.197Z,93199.63
2018-02-21T10:02:07.735Z,93199.41
2018-02-21T10:04:35.273Z,93204.99
2018-02-21T10:07:03.135Z,93214.84
2018-02-21T10:09:30.703Z,93202.92
2018-02-21T10:11:58.272Z,93203.48
2018-02-21T10:14:26.791Z,93197.59
2018-02-21T10:16:54.343Z,93197.94
2018-02-21T10:19:21.879Z,93192.63
2018-02-21T10:21:49.540Z,93205.72
2018-02-21T10:24:17.108Z,93190.41
2018-02-21T10:26:44.721Z,93195.91
2018-02-21T10:29:12.305Z,93204.64
2018-02-21T10:31:39.849Z,93189.08
2018-02-21T10:34:07.426Z,93186.72
2018-02-21T10:36:35.297Z,93190.17
2018-02-21T10:39:02.871Z,93185.22
2018-02-21T10:41:30.427Z,93175.67
2018-02-21T10:43:58.014Z,93188.36
2018-02-21T10:46:25.567Z,93178.79
2018-02-21T10:48:53.110Z,93183.84
2018-02-21T10:51:21.721Z,93178.25
2018-02-21T10:53:49.274Z,93169.38
2018-02-21T10:56:16.850Z,93176.45
2018-02-21T10:58:44.528Z,93170.86
2018-02-21T11:01:17.514Z,93181.65
2018-02-21T11:03:45.088Z,93167.02
2018-02-21T11:06:12.647Z,93171.19
2018-02-21T11:08:40.210Z,93184.38
2018-02-21T11:11:07.943Z,93178.75
2018-02-21T11:13:35.507Z,93168.91
2018-02-21T11:16:03.058Z,93180.95
2018-02-21T11:18:30.610Z,93168.94
2018-02-21T11:20:58.160Z,93183.64
2018-02-21T11:23:25.891Z,93170.70
2018-02-21T11:25:53.426Z,93172.98
2018-02-21T11:28:20.965Z,93181.14
2018-02-21T11:30:48.648Z,93157.86
2018-02-21T11:33:16.195Z,93178.02
2018-02-21T11:35:43.769Z,93178.21
2018-02-21T11:38:11.356Z,93169.78
2018-02-21T11:40:38.947Z,93178.27
2018-02-21T11:43:06.496Z,93168.56
2018-02-21T11:45:34.081Z,93176.64
2018-02-21T11:48:01.623Z,93161.88
2018-02-21T11:50:29.163Z,93193.41
2018-02-21T11:52:56.746Z,93183.95
2018-02-21T11:55:24.283Z,93176.12
2018-02-21T11:57:51.829Z,93174.28
2018-02-21T12:00:19.501Z,93174.84
2018-02-21T12:02:47.099Z,93160.64
2018-02-21T12:05:14.643Z,93166.69
2018-02-21T12:07:42.329Z,93160.33
2018-02-21T12:10:09.878Z,93168.55
2018-02-21T12:12:37.414Z,93159.90
2018-02-21T12:15:05.042Z,93158.90
2018-02-21T12:17:32.598Z,93182.53
2018-02-21T12:20:00.162Z,93166.09
2018-02-21T12:22:27.756Z,93169.94
2018-02-21T12:24:55.358Z,93170.98
2018-02-21T12:27:23.110Z,93168.20
2018-02-21T12:29:50.782Z,93163.06
2018-02-21T12:32:19.131Z,93163.48
2018-02-21T12:34:46.698Z,93156.59
2018-02-21T12:37:14.307Z,93167.77
2018-02-21T12:39:41.879Z,93157.21
2018-02-21T12:42:09.425Z,93180.70
2018-02-21T12:44:37.427Z,93152.97
2018-02-21T12:47:05.032Z,93159.78
2018-02-21T12:49:32.595Z,93164.92
2018-02-21T12:52:00.173Z,93160.02
2018-02-21T12:54:27.725Z,93150.17
2018-02-21T12:56:55.273Z,93139.04
2018-02-21T12:59:23.069Z,93152.87
2018-02-21T13:01:50.605Z,93155.67
2018-02-21T13:04:18.168Z,93145.81
2018-02-21T13:06:45.751Z,93152.40
2018-02-21T13:09:13.335Z,93148.33
2018-02-21T13:11:40.903Z,93150.95
2018-02-21T13:14:08.487Z,93154.83
2018-02-21T13:16:36.028Z,93154.78
2018-02-21T13:19:03.578Z,93156.44
2018-02-21T13:21:31.270Z,93155.87
2018-02-21T13:23:58.819Z,93148.98
2018-02-21T13:26:26.362Z,93151.53
2018-02-21T13:28:53.957Z,93159.98
2018-02-21T13:31:21.520Z,93152.67
2018-02-21T13:33:49.084Z,93162.52
2018-02-21T13:36:16.688Z,93157.88
2018-02-21T13:38:44.244Z,93147.44
2018-02-21T13:41:11.789Z,93154.29
2018-02-21T13:43:39.747Z,93143.95
2018-02-21T13:46:07.309Z,93159.70
2018-02-21T13:48:34.873Z,93154.24
2018-02-21T13:51:02.933Z,93152.86
2018-02-21T13:53:30.501Z,93147.71
2018-02-21T13:55:58.061Z,93158.29
2018-02-21T13:58:25.947Z,93163.75
2018-02-21T14:00:53.507Z,93160.34
2018-02-21T14:03:21.067Z,93158.16
2018-02-21T14:05:48.777Z,93157.00
2018-02-21T14:08:16.330Z,93152.91
2018-02-21T14:10:43.882Z,93150.93
2018-02-21T14:13:12.111Z,93145.67
2018-02-21T14:15:39.681Z,93142.05
2018-02-21T14:18:07.406Z,93137.25
2018-02-21T14:20:35.130Z,93151.70
2018-02-21T14:23:02.688Z,93162.87
2018-02-21T14:25:30.234Z,93158.81
2018-02-21T14:27:57.834Z,93155.84
2018-02-21T14:30:25.397Z,93156.17
2018-02-21T14:32:52.964Z,93156.17
2018-02-21T14:35:20.548Z,93145.97
2018-02-21T14:37:48.139Z,93150.70
2018-02-21T14:40:15.716Z,93153.27
2018-02-21T14:42:43.408Z,93155.33
2018-02-21T14:45:10.987Z,93157.80
2018-02-21T14:47:38.535Z,93164.94
2018-02-21T14:50:06.228Z,93159.98
2018-02-21T14:52:33.785Z,93161.60
2018-02-21T14:55:01.335Z,93159.68
2018-02-21T14:57:29.080Z,93170.83
2018-02-21T14:59:56.652Z,93158.44
2018-02-21T15:02:24.206Z,93150.97
2018-02-21T15:04:51.943Z,93158.41
2018-02-21T15:07:19.530Z,93160.58
2018-02-21T15:09:47.117Z,93153.49
2018-02-21T15:12:14.706Z,93167.23
2018-02-21T15:14:42.268Z,93163.13
2018-02-21T15:17:09.828Z,93175.48
2018-02-21T15:19:37.379Z,93181.75
2018-02-21T15:22:04.931Z,93202.05
2018-02-21T15:24:32.519Z,93189.26
2018-02-21T15:27:00.083Z,93199.23
2018-02-21T15:29:27.647Z,93187.71
2018-02-21T15:31:55.563Z,93186.95
2018-02-21T15:34:23.107Z,93192.25
2018-02-21T15:36:50.674Z,93190.67
2018-02-21T15:39:18.370Z,93192.73
2018-02-21T15:41:45.920Z,93197.61
2018-02-21T15:44:13.501Z,93188.98
2018-02-21T15:46:41.291Z,93186.54
2018-02-21T15:49:08.865Z,93189.50
2018-02-21T15:51:36.421Z,93180.83
2018-02-21T15:54:04.300Z,93190.73
2018-02-21T15:56:31.857Z,93181.69
2018-02-21T15:58:59.423Z,93173.19
2018-02-21T16:01:27.028Z,93170.74
2018-02-21T16:03:54.596Z,93169.09
2018-02-21T16:06:22.162Z,93174.48
2018-02-21T16:08:49.772Z,93175.77
2018-02-21T16:11:17.325Z,93178.69
2018-02-21T16:13:44.908Z,93171.25
2018-02-21T16:16:12.661Z,93167.55
2018-02-21T16:18:40.231Z,93173.77
2018-02-21T16:21:07.773Z,93170.05
2018-02-21T16:23:35.393Z,93172.15
2018-02-21T16:26:02.946Z,93184.05
2018-02-21T16:28:30.509Z,93181.16
2018-02-21T16:30:59.124Z,93187.31
2018-02-21T16:33:26.666Z,93196.39
2018-02-21T16:35:54.206Z,93186.11
2018-02-21T16:38:21.930Z,93179.06
2018-02-21T16:40:49.480Z,93188.14
2018-02-21T16:43:17.025Z,93183.25
2018-02-21T16:45:44.732Z,93179.92
2018-02-21T16:48:12.285Z,93187.73
2018-02-21T16:50:39.835Z,93190.17
2018-02-21T16:53:07.706Z,93196.30
2018-02-21T16:55:35.273Z,93199.22
2018-02-21T16:58:02.831Z,93192.58
2018-02-21T17:00:30.419Z,93202.94
2018-02-21T17:02:57.985Z,93196.71
2018-02-21T17:05:25.542Z,93208.20
2018-02-21T17:07:53.227Z,93199.12
2018-02-21T17:10:21.642Z,93198.33
2018-02-21T17:12:49.237Z,93201.56
2018-02-21T17:15:17.024Z,93193.72
2018-02-21T17:17:44.594Z,93211.85
2018-02-21T17:20:12.178Z,93200.27
2018-02-21T17:22:40.003Z,93192.07
2018-02-21T17:25:07.589Z,93202.80
2018-02-21T17:27:35.194Z,93198.61
2018-02-21T17:30:02.803Z,93196.61
2018-02-21T17:32:30.366Z,93194.55
2018-02-21T17:34:57.991Z,93192.11
2018-02-21T17:37:25.602Z,93185.44
2018-02-21T17:39:53.167Z,93180.89
2018-02-21T17:42:20.745Z,93182.67
2018-02-21T17:44:48.374Z,93178.17
2018-02-21T17:47:15.968Z,93171.57
2018-02-21T17:49:43.525Z,93180.58
2018-02-21T17:52:11.140Z,93180.20
2018-02-21T17:54:38.714Z,93174.02
2018-02-21T17:57:06.268Z,93171.16
2018-02-21T17:59:34.048Z,93174.42
2018-02-21T18:02:01.630Z,93175.15
2018-02-21T18:04:29.185Z,93166.89
2018-02-21T18:06:56.800Z,93183.82
2018-02-21T18:09:24.397Z,93177.63
2018-02-21T18:11:51.979Z,93190.01
2018-02-21T18:14:19.582Z,93186.30
2018-02-21T18:16:47.162Z,93184.23
2018-02-21T18:19:14.731Z,93188.36
2018-02-21T18:21:47.799Z,93185.44
2018-02-21T18:24:15.371Z,93194.04
2018-02-21T18:26:42.918Z,93200.23
2018-02-21T18:29:10.695Z,93186.95
2018-02-21T18:31:38.260Z,93192.63
2018-02-21T18:34:05.841Z,93185.58
2018-02-21T18:36:33.542Z,93192.97
2018-02-21T18:39:01.096Z,93192.91
2018-02-21T18:41:28.648Z,93197.03
2018-02-21T18:43:56.558Z,93196.63
2018-02-21T18:46:24.136Z,93190.73
2018-02-21T18:48:51.784Z,93198.54
2018-02-21T18:51:19.373Z,93193.63
2018-02-21T18:53:47.005Z,93192.42
2018-02-21T18:56:14.675Z,93194.10
2018-02-21T18:58:42.703Z,93192.45
2018-02-21T19:01:10.617Z,93197.38
2018-02-21T19:03:38.215Z,93185.84
2018-02-21T19:06:06.253Z,93192.01
2018-02-21T19:08:33.983Z,93197.75
2018-02-21T19:11:01.651Z,93195.69
2018-02-21T19:13:29.373Z,93187.91
2018-02-21T19:15:56.957Z,93192.83
2018-02-21T19:18:24.612Z,93188.73
2018-02-21T19:20:52.344Z,93195.69
2018-02-21T19:23:19.932Z,93185.47
2018-02-21T19:25:47.567Z,93186.67
2018-02-21T19:28:15.371Z,93189.11
2018-02-21T19:30:43.094Z,93187.46
2018-02-21T19:33:10.902Z,93188.25
2018-02-21T19:35:39.434Z,93190.73
2018-02-21T19:38:07.347Z,93182.02
2018-02-21T19:40:35.037Z,93181.64
2018-02-21T19:43:02.749Z,93200.20
2018-02-21T19:45:30.428Z,93184.95
2018-02-21T19:47:58.084Z,93184.58
2018-02-21T19:50:26.003Z,93178.38
2018-02-21T19:52:53.727Z,93177.63
2018-02-21T19:55:21.355Z,93181.38
2018-02-21T19:57:48.993Z,93178.48
2018-02-21T20:00:16.623Z,93193.34
2018-02-21T20:02:44.243Z,93194.17
2018-02-21T20:05:11.922Z,93186.36
2018-02-21T20:07:39.543Z,93189.22
2018-02-21T20:10:07.172Z,93200.44
2018-02-21T20:12:34.808Z,93200.88
2018-02-21T20:15:02.406Z,93191.80
2018-02-21T20:17:29.981Z,93189.70
2018-02-21T20:19:57.556Z,93193.42
2018-02-21T20:22:25.112Z,93202.92
2018-02-21T20:24:53.043Z,93207.39
2018-02-21T20:27:20.642Z,93202.84
2018-02-21T20:29:48.235Z,93204.43
2018-02-21T20:32:16.019Z,93201.98
2018-02-21T20:34:43.627Z,93200.37
2018-02-21T20:37:11.206Z,93207.01
2018-02-21T20:39:38.810Z,93200.33
2018-02-21T20:42:06.406Z,93193.66
2018-02-21T20:44:33.996Z,93190.73
2018-02-21T20:47:01.799Z,93200.72
2018-02-21T20:49:29.341Z,93195.72
2018-02-21T20:51:56.903Z,93196.17
2018-02-21T20:54:24.653Z,93189.16
2018-02-21T20:56:52.226Z,93191.21
2018-02-21T20:59:19.774Z,93189.56
2018-02-21T21:01:47.502Z,93188.73
2018-02-21T21:04:15.065Z,93190.88
2018-02-21T21:06:42.630Z,93179.72
2018-02-21T21:09:10.228Z,93177.31
2018-02-21T21:11:37.802Z,93187.67
2018-02-21T21:14:05.360Z,93186.33
2018-02-21T21:16:32.951Z,93176.08
2018-02-21T21:19:00.507Z,93174.43
2018-02-21T21:21:28.051Z,93181.10
2018-02-21T21:23:55.728Z,93165.90
2018-02-21T21:26:23.276Z,93171.71
2018-02-21T21:28:50.821Z,93178.77
2018-02-21T21:31:18.415Z,93167.66
2018-02-21T21:33:46.000Z,93162.28
2018-02-21T21:36:13.556Z,93168.99
2018-02-21T21:38:41.286Z,93173.05
2018-02-21T21:41:08.835Z,93180.86
2018-02-21T21:43:36.383Z,93174.63
2018-02-21T21:46:03.968Z,93172.19
2018-02-21T21:48:31.519Z,93169.78
2018-02-21T21:50:59.083Z,93175.22
2018-02-21T21:53:26.834Z,93183.82
2018-02-21T21:55:54.379Z,93186.77
2018-02-21T21:58:21.924Z,93186.33
2018-02-21T22:00:49.569Z,93190.08
2018-02-21T22:03:17.130Z,93187.60
2018-02-21T22:05:44.698Z,93186.42
2018-02-21T22:08:12.281Z,93185.22
2018-02-21T22:10:39.826Z,93186.91
2018-02-21T22:13:07.372Z,93177.38
2018-02-21T22:15:34.959Z,93184.77
2018-02-21T22:18:02.486Z,93175.77
2018-02-21T22:20:30.093Z,93173.28
2018-02-21T22:22:57.674Z,93184.02
2018-02-21T22:25:25.225Z,93174.11
2018-02-21T22:27:52.783Z,93169.13
2018-02-21T22:30:20.393Z,93185.19
2018-02-21T22:32:47.929Z,93171.60
2018-02-21T22:35:15.463Z,93162.59
2018-02-21T22:37:43.324Z,93177.80
2018-02-21T22:40:10.870Z,93177.00
2018-02-21T22:42:38.420Z,93173.28
2018-02-21T22:45:06.303Z,93179.09
2018-02-21T22:47:33.838Z,93162.11
2018-02-21T22:50:01.389Z,93172.91
2018-02-21T22:52:29.110Z,93190.58
2018-02-21T22:54:56.659Z,93176.94
2018-02-21T22:57:24.194Z,93166.96
2018-02-21T22:59:51.920Z,93160.80
2018-02-21T23:02:19.461Z,93172.70
2018-02-21T23:04:47.046Z,93167.34
2018-02-21T23:07:14.672Z,93164.45
2018-02-21T23:09:42.213Z,93167.72
2018-02-21T23:12:09.808Z,93165.66
2018-02-21T23:14:37.356Z,93157.78
2018-02-21T23:17:04.904Z,93155.30
2018-02-21T23:19:32.447Z,93161.46
2018-02-21T23:22:00.173Z,93161.05
2018-02-21T23:24:27.727Z,93165.97
2018-02-21T23:26:55.269Z,93158.09
2018-02-21T23:29:22.994Z,93159.33
2018-02-21T23:31:50.552Z,93151.17
2018-02-21T23:34:18.095Z,93142.95
2018-02-21T23:36:45.966Z,93140.52
2018-02-21T23:39:13.506Z,93147.15
2018-02-21T23:41:41.044Z,93139.28
2018-02-21T23:44:08.778Z,93138.86
2018-02-21T23:46:36.305Z,93131.02
2018-02-21T23:49:03.865Z,93128.13
2018-02-21T23:51:31.449Z,93131.02
2018-02-21T23:53:59.031Z,93137.17
2018-02-21T23:56:26.553Z,93138.00
2018-02-21T23:58:54.114Z,93120.66
